createdAt,value
2022-08-26T00:00:19.627Z,21.84
2022-08-26T00:02:47.823Z,21.82
2022-08-26T00:05:16.321Z,21.77
2022-08-26T00:07:44.695Z,21.77
2022-08-26T00:10:15.126Z,21.75
2022-08-26T00:12:43.335Z,21.71
2022-08-26T00:15:13.824Z,21.67
2022-08-26T00:17:42.092Z,21.64
2022-08-26T00:20:11.625Z,21.64
2022-08-26T00:22:39.723Z,21.65
2022-08-26T00:25:10.263Z,21.62
2022-08-26T00:27:40.011Z,21.59
2022-08-26T00:30:11.414Z,21.47
2022-08-26T00:32:39.486Z,21.47
2022-08-26T00:35:08.729Z,21.49
2022-08-26T00:37:36.821Z,21.47
2022-08-26T00:40:06.268Z,21.45
2022-08-26T00:42:34.429Z,21.42
2022-08-26T00:45:04.447Z,21.24
2022-08-26T00:47:45.112Z,21.14
2022-08-26T00:50:19.738Z,21.13
2022-08-26T00:52:48.923Z,21.18
2022-08-26T00:55:22.228Z,21.01
2022-08-26T00:57:51.941Z,21.00
2022-08-26T01:00:25.738Z,20.99
2022-08-26T01:02:53.627Z,20.98
2022-08-26T01:05:21.983Z,20.98
2022-08-26T01:07:50.066Z,20.95
2022-08-26T01:10:22.220Z,20.82
2022-08-26T01:13:04.773Z,20.80
2022-08-26T01:15:37.181Z,20.76
2022-08-26T01:18:07.530Z,20.73
2022-08-26T01:20:42.583Z,20.73
2022-08-26T01:23:13.684Z,20.67
2022-08-26T01:25:46.703Z,20.65
2022-08-26T01:28:18.679Z,20.60
2022-08-26T01:30:48.230Z,20.55
2022-08-26T01:33:20.833Z,20.55
2022-08-26T01:35:50.148Z,20.51
2022-08-26T01:38:21.471Z,20.47
2022-08-26T01:40:52.009Z,20.42
2022-08-26T01:43:27.087Z,20.42
2022-08-26T01:45:57.152Z,20.39
2022-08-26T01:48:29.536Z,20.35
2022-08-26T01:50:58.022Z,20.27
2022-08-26T01:53:28.294Z,20.27
2022-08-26T01:56:00.556Z,20.29
2022-08-26T01:58:36.058Z,20.21
2022-08-26T02:01:04.963Z,20.18
2022-08-26T02:03:34.124Z,20.19
2022-08-26T02:06:09.412Z,20.16
2022-08-26T02:08:43.030Z,20.15
2022-08-26T02:11:12.193Z,20.03
2022-08-26T02:13:44.491Z,20.08
2022-08-26T02:16:14.009Z,20.08
2022-08-26T02:18:45.024Z,20.07
2022-08-26T02:21:15.318Z,20.05
2022-08-26T02:23:45.532Z,20.09
2022-08-26T02:26:16.496Z,20.12
2022-08-26T02:28:51.660Z,20.14
2022-08-26T02:31:20.287Z,20.17
2022-08-26T02:33:48.940Z,20.19
2022-08-26T02:36:20.975Z,20.18
2022-08-26T02:38:50.479Z,20.16
2022-08-26T02:41:20.279Z,20.16
2022-08-26T02:43:51.418Z,20.18
2022-08-26T02:46:27.913Z,20.17
2022-08-26T02:48:58.216Z,20.05
2022-08-26T02:51:27.064Z,20.16
2022-08-26T02:53:57.020Z,20.16
2022-08-26T02:56:25.843Z,20.20
2022-08-26T02:58:55.747Z,20.21
2022-08-26T03:01:25.907Z,20.27
2022-08-26T03:03:54.618Z,20.24
2022-08-26T03:06:24.389Z,20.20
2022-08-26T03:08:53.238Z,20.21
2022-08-26T03:11:23.729Z,20.21
2022-08-26T03:13:53.818Z,20.17
2022-08-26T03:16:22.027Z,20.18
2022-08-26T03:18:52.461Z,20.20
2022-08-26T03:21:21.780Z,20.19
2022-08-26T03:23:49.913Z,20.20
2022-08-26T03:26:18.321Z,20.16
2022-08-26T03:29:05.316Z,20.16
2022-08-26T03:31:33.507Z,20.10
2022-08-26T03:34:01.909Z,20.12
2022-08-26T03:36:30.063Z,20.14
2022-08-26T03:38:58.637Z,20.17
2022-08-26T03:41:26.744Z,20.17
2022-08-26T03:44:00.995Z,20.17
2022-08-26T03:46:30.088Z,20.17
2022-08-26T03:48:58.563Z,20.18
2022-08-26T03:51:27.544Z,20.18
2022-08-26T03:53:56.003Z,20.21
2022-08-26T03:56:25.316Z,20.19
2022-08-26T03:58:54.610Z,20.18
2022-08-26T04:01:24.572Z,20.20
2022-08-26T04:04:01.804Z,20.24
2022-08-26T04:06:33.964Z,20.27
2022-08-26T04:09:05.461Z,20.30
2022-08-26T04:11:38.295Z,20.31
2022-08-26T04:14:08.415Z,20.32
2022-08-26T04:16:38.953Z,20.08
2022-08-26T04:19:07.512Z,20.33
2022-08-26T04:21:38.309Z,20.37
2022-08-26T04:24:11.376Z,20.39
2022-08-26T04:26:42.860Z,20.41
2022-08-26T04:29:14.947Z,20.43
2022-08-26T04:31:44.536Z,20.44
2022-08-26T04:34:14.201Z,20.52
2022-08-26T04:36:44.134Z,20.58
2022-08-26T04:39:16.702Z,20.64
2022-08-26T04:41:47.747Z,20.68
2022-08-26T04:44:17.447Z,20.73
2022-08-26T04:46:47.037Z,20.76
2022-08-26T04:49:15.543Z,20.73
2022-08-26T04:51:43.942Z,20.82
2022-08-26T04:54:12.240Z,20.86
2022-08-26T04:56:42.468Z,20.94
2022-08-26T04:59:17.073Z,21.00
2022-08-26T05:01:49.697Z,21.08
2022-08-26T05:04:19.279Z,21.15
2022-08-26T05:06:47.788Z,21.22
2022-08-26T05:09:18.439Z,21.26
2022-08-26T05:11:48.435Z,21.39
2022-08-26T05:14:20.822Z,21.47
2022-08-26T05:16:50.333Z,21.56
2022-08-26T05:19:19.158Z,21.68
2022-08-26T05:21:48.533Z,21.68
2022-08-26T05:24:17.122Z,21.83
2022-08-26T05:26:47.258Z,21.91
2022-08-26T05:29:16.211Z,22.00
2022-08-26T05:31:45.018Z,22.09
2022-08-26T05:34:14.619Z,22.21
2022-08-26T05:36:43.328Z,22.27
2022-08-26T05:39:11.415Z,22.40
2022-08-26T05:41:42.329Z,22.44
2022-08-26T05:44:13.151Z,22.55
2022-08-26T05:46:44.819Z,22.71
2022-08-26T05:49:17.040Z,22.83
2022-08-26T05:51:47.642Z,22.97
2022-08-26T05:54:21.919Z,23.08
2022-08-26T05:56:50.791Z,23.20
2022-08-26T05:59:24.242Z,23.24
2022-08-26T06:01:54.740Z,23.18
2022-08-26T06:04:27.204Z,23.27
2022-08-26T06:06:56.512Z,23.26
2022-08-26T06:09:25.477Z,23.29
2022-08-26T06:11:53.663Z,23.31
2022-08-26T06:14:21.830Z,23.32
2022-08-26T06:16:49.935Z,23.36
2022-08-26T06:19:18.372Z,23.39
2022-08-26T06:21:54.104Z,23.43
2022-08-26T06:24:39.951Z,23.48
2022-08-26T06:27:11.398Z,23.53
2022-08-26T06:29:39.647Z,23.55
2022-08-26T06:32:08.811Z,23.64
2022-08-26T06:34:37.127Z,23.75
2022-08-26T06:37:07.276Z,23.88
2022-08-26T06:39:35.755Z,24.03
2022-08-26T06:42:09.222Z,24.18
2022-08-26T06:44:40.953Z,24.30
2022-08-26T06:47:09.260Z,24.39
2022-08-26T06:49:37.560Z,24.50
2022-08-26T06:52:07.403Z,24.60
2022-08-26T06:54:37.194Z,24.60
2022-08-26T06:57:07.581Z,24.71
2022-08-26T06:59:35.757Z,24.79
2022-08-26T07:02:06.151Z,24.92
2022-08-26T07:04:36.196Z,25.00
2022-08-26T07:07:04.467Z,25.26
2022-08-26T07:09:35.413Z,25.63
2022-08-26T07:12:06.859Z,25.89
2022-08-26T07:14:38.221Z,26.01
2022-08-26T07:17:11.011Z,26.04
2022-08-26T07:19:41.920Z,25.97
2022-08-26T07:22:11.061Z,25.96
2022-08-26T07:24:42.510Z,25.95
2022-08-26T07:27:13.681Z,26.02
2022-08-26T07:29:43.722Z,26.06
2022-08-26T07:32:14.413Z,26.00
2022-08-26T07:34:43.595Z,26.04
2022-08-26T07:37:12.372Z,26.11
2022-08-26T07:39:43.223Z,26.10
2022-08-26T07:42:13.339Z,26.12
2022-08-26T07:44:42.432Z,26.20
2022-08-26T07:47:24.860Z,26.22
2022-08-26T07:49:54.344Z,26.31
2022-08-26T07:52:26.236Z,26.48
2022-08-26T07:54:56.827Z,26.55
2022-08-26T07:57:25.031Z,26.54
2022-08-26T07:59:53.924Z,26.64
2022-08-26T08:02:24.139Z,26.64
2022-08-26T08:04:53.278Z,26.53
2022-08-26T08:07:21.637Z,26.58
2022-08-26T08:10:11.656Z,26.68
2022-08-26T08:12:39.900Z,26.70
2022-08-26T08:15:09.804Z,26.95
2022-08-26T08:17:37.998Z,27.16
2022-08-26T08:20:07.725Z,27.35
2022-08-26T08:22:35.652Z,27.55
2022-08-26T08:25:08.065Z,27.82
2022-08-26T08:27:39.444Z,28.16
2022-08-26T08:30:10.232Z,28.15
2022-08-26T08:32:43.630Z,28.30
2022-08-26T08:35:14.144Z,28.50
2022-08-26T08:37:43.856Z,28.82
2022-08-26T08:40:18.423Z,28.97
2022-08-26T08:45:36.629Z,29.40
2022-08-26T08:48:09.984Z,29.63
2022-08-26T08:50:44.745Z,29.77
2022-08-26T08:53:17.536Z,29.99
2022-08-26T08:55:59.404Z,30.07
2022-08-26T08:58:40.675Z,30.29
2022-08-26T09:01:17.869Z,30.37
2022-08-26T09:03:57.269Z,30.49
2022-08-26T09:06:27.635Z,30.49
2022-08-26T09:08:57.487Z,30.59
2022-08-26T09:11:25.780Z,30.94
2022-08-26T09:13:56.903Z,31.09
2022-08-26T09:16:36.910Z,31.25
2022-08-26T09:19:14.629Z,31.61
2022-08-26T09:21:47.324Z,31.46
2022-08-26T09:24:22.267Z,31.71
2022-08-26T09:26:52.634Z,31.79
2022-08-26T09:29:25.117Z,31.81
2022-08-26T09:31:56.656Z,31.96
2022-08-26T09:34:26.688Z,31.92
2022-08-26T09:36:56.212Z,31.82
2022-08-26T09:39:34.737Z,31.66
2022-08-26T09:42:11.815Z,31.50
2022-08-26T09:45:03.734Z,31.46
2022-08-26T09:47:34.205Z,31.42
2022-08-26T09:50:12.429Z,30.93
2022-08-26T09:52:42.847Z,30.97
2022-08-26T09:55:14.707Z,30.76
2022-08-26T09:57:49.720Z,30.51
2022-08-26T10:00:31.008Z,30.24
2022-08-26T10:03:01.018Z,30.33
2022-08-26T10:05:33.382Z,30.20
2022-08-26T10:08:02.232Z,30.07
2022-08-26T10:10:34.864Z,30.11
2022-08-26T10:13:11.005Z,30.09
2022-08-26T10:15:50.648Z,30.21
2022-08-26T10:18:25.232Z,30.34
2022-08-26T10:20:59.253Z,30.41
2022-08-26T10:23:32.510Z,30.63
2022-08-26T10:26:09.887Z,30.79
2022-08-26T10:28:45.115Z,30.99
2022-08-26T10:31:27.892Z,31.15
2022-08-26T10:34:00.494Z,31.28
2022-08-26T10:37:14.339Z,31.28
2022-08-26T10:39:46.178Z,31.19
2022-08-26T10:42:21.819Z,31.10
2022-08-26T10:44:53.444Z,31.02
2022-08-26T10:47:35.280Z,30.99
2022-08-26T10:50:04.724Z,30.98
2022-08-26T10:52:52.791Z,30.89
2022-08-26T10:55:25.657Z,30.77
2022-08-26T10:58:04.756Z,30.72
2022-08-26T11:00:58.141Z,30.65
2022-08-26T11:03:38.937Z,30.72
2022-08-26T11:06:24.892Z,30.66
2022-08-26T11:08:54.684Z,30.60
2022-08-26T11:11:51.531Z,30.63
2022-08-26T11:14:53.052Z,30.65
2022-08-26T11:17:56.716Z,30.71
2022-08-26T11:20:39.334Z,30.71
2022-08-26T11:23:50.495Z,30.75
2022-08-26T11:26:43.141Z,30.77
2022-08-26T11:29:13.531Z,30.77
2022-08-26T11:31:59.990Z,30.75
2022-08-26T11:34:54.200Z,30.74
2022-08-26T11:37:32.251Z,30.56
2022-08-26T11:40:03.901Z,30.57
2022-08-26T11:42:37.886Z,30.54
2022-08-26T11:45:20.088Z,30.67
2022-08-26T11:47:49.327Z,30.62
2022-08-26T11:50:20.747Z,30.51
2022-08-26T11:53:07.790Z,30.35
2022-08-26T11:55:43.110Z,30.38
2022-08-26T11:58:13.798Z,30.47
2022-08-26T12:00:52.529Z,30.62
2022-08-26T12:03:25.129Z,30.71
2022-08-26T12:05:55.197Z,30.79
2022-08-26T12:08:31.368Z,30.85
2022-08-26T12:11:09.802Z,30.92
2022-08-26T12:13:39.372Z,31.00
2022-08-26T12:16:08.298Z,31.03
2022-08-26T12:18:38.308Z,31.10
2022-08-26T12:21:16.181Z,31.07
2022-08-26T12:23:49.911Z,31.27
2022-08-26T12:26:25.502Z,31.33
2022-08-26T12:28:57.534Z,31.41
2022-08-26T12:31:29.726Z,31.54
2022-08-26T12:33:59.640Z,31.53
2022-08-26T12:36:32.801Z,31.61
2022-08-26T12:39:10.079Z,31.55
2022-08-26T12:41:45.133Z,31.56
2022-08-26T12:44:35.373Z,31.58
2022-08-26T12:47:08.447Z,31.51
2022-08-26T12:49:37.682Z,31.45
2022-08-26T12:52:06.805Z,31.50
2022-08-26T12:54:56.867Z,31.54
2022-08-26T12:57:29.608Z,31.45
2022-08-26T13:00:28.320Z,31.49
2022-08-26T13:02:57.717Z,31.42
2022-08-26T13:05:29.341Z,31.43
2022-08-26T13:08:15.032Z,31.46
2022-08-26T13:10:46.832Z,31.50
2022-08-26T13:13:15.510Z,31.45
2022-08-26T13:15:45.116Z,31.36
2022-08-26T13:18:13.260Z,31.25
2022-08-26T13:20:44.323Z,31.10
2022-08-26T13:23:13.675Z,31.13
2022-08-26T13:25:46.637Z,31.17
2022-08-26T13:28:15.092Z,31.27
2022-08-26T13:30:47.218Z,31.16
2022-08-26T13:33:18.423Z,31.21
2022-08-26T13:35:46.785Z,30.91
2022-08-26T13:38:18.572Z,31.09
2022-08-26T13:41:04.151Z,31.22
2022-08-26T13:43:32.602Z,31.28
2022-08-26T13:46:02.070Z,31.26
2022-08-26T13:48:31.357Z,31.23
2022-08-26T13:50:59.705Z,31.19
2022-08-26T13:53:29.689Z,31.05
2022-08-26T13:55:58.988Z,31.04
2022-08-26T13:58:29.307Z,31.20
2022-08-26T14:00:59.094Z,31.10
2022-08-26T14:03:27.627Z,31.27
2022-08-26T14:05:56.164Z,31.22
2022-08-26T14:08:25.399Z,31.15
2022-08-26T14:10:53.972Z,31.11
2022-08-26T14:13:22.091Z,31.19
2022-08-26T14:15:52.860Z,31.14
2022-08-26T14:18:24.234Z,31.17
2022-08-26T14:20:55.501Z,31.13
2022-08-26T14:23:23.953Z,31.08
2022-08-26T14:25:52.892Z,30.99
2022-08-26T14:28:21.244Z,31.14
2022-08-26T14:30:55.399Z,31.02
2022-08-26T14:33:27.899Z,30.76
2022-08-26T14:36:16.935Z,30.71
2022-08-26T14:38:45.469Z,30.65
2022-08-26T14:41:15.585Z,30.60
2022-08-26T14:43:48.954Z,30.64
2022-08-26T14:46:19.580Z,30.51
2022-08-26T14:48:48.070Z,30.63
2022-08-26T14:51:16.095Z,30.43
2022-08-26T14:54:01.264Z,30.36
2022-08-26T14:56:31.730Z,30.34
2022-08-26T14:58:59.979Z,30.19
2022-08-26T15:01:31.082Z,29.98
2022-08-26T15:03:59.733Z,30.08
2022-08-26T15:06:28.516Z,30.19
2022-08-26T15:08:56.724Z,30.12
2022-08-26T15:11:25.977Z,30.10
2022-08-26T15:13:54.402Z,30.38
2022-08-26T15:16:22.892Z,30.18
2022-08-26T15:18:53.250Z,30.08
2022-08-26T15:21:22.638Z,30.00
2022-08-26T15:23:54.085Z,29.81
2022-08-26T15:26:23.894Z,29.69
2022-08-26T15:28:52.822Z,29.78
2022-08-26T15:31:26.681Z,29.83
2022-08-26T15:33:59.545Z,29.65
2022-08-26T15:36:29.510Z,29.64
2022-08-26T15:38:59.453Z,29.61
2022-08-26T15:41:28.486Z,29.57
2022-08-26T15:43:56.966Z,29.57
2022-08-26T15:46:25.798Z,29.59
2022-08-26T15:48:55.646Z,29.74
2022-08-26T15:51:26.149Z,29.54
2022-08-26T15:53:58.023Z,29.46
2022-08-26T15:56:27.305Z,29.50
2022-08-26T15:58:57.027Z,29.45
2022-08-26T16:01:27.387Z,29.43
2022-08-26T16:03:57.654Z,29.33
2022-08-26T16:06:28.661Z,29.36
2022-08-26T16:08:58.202Z,29.35
2022-08-26T16:11:27.359Z,29.31
2022-08-26T16:13:55.600Z,29.24
2022-08-26T16:16:25.001Z,29.14
2022-08-26T16:18:53.660Z,29.13
2022-08-26T16:21:25.657Z,29.09
2022-08-26T16:23:54.142Z,29.10
2022-08-26T16:26:25.534Z,28.90
2022-08-26T16:28:53.951Z,28.85
2022-08-26T16:31:22.777Z,28.80
2022-08-26T16:33:51.544Z,28.62
2022-08-26T16:36:20.021Z,28.53
2022-08-26T16:38:53.588Z,28.52
2022-08-26T16:41:22.665Z,28.52
2022-08-26T16:43:51.312Z,28.50
2022-08-26T16:46:22.302Z,28.37
2022-08-26T16:48:50.427Z,28.26
2022-08-26T16:51:23.060Z,28.12
2022-08-26T16:53:53.657Z,28.17
2022-08-26T16:56:23.878Z,28.13
2022-08-26T16:59:01.736Z,28.05
2022-08-26T17:01:30.768Z,27.98
2022-08-26T17:03:58.884Z,27.90
2022-08-26T17:06:26.973Z,27.79
2022-08-26T17:08:56.596Z,27.67
2022-08-26T17:11:24.726Z,27.61
2022-08-26T17:13:53.681Z,27.51
2022-08-26T17:16:26.624Z,27.43
2022-08-26T17:18:56.326Z,27.35
2022-08-26T17:21:25.238Z,27.24
2022-08-26T17:23:54.269Z,27.12
2022-08-26T17:26:23.925Z,27.02
2022-08-26T17:28:52.491Z,27.00
2022-08-26T17:31:21.679Z,26.92
2022-08-26T17:33:53.415Z,26.81
2022-08-26T17:36:28.111Z,26.71
2022-08-26T17:38:58.142Z,26.64
2022-08-26T17:41:28.390Z,26.57
2022-08-26T17:43:57.261Z,26.49
2022-08-26T17:46:25.887Z,26.44
2022-08-26T17:48:54.289Z,26.37
2022-08-26T17:51:23.588Z,26.30
2022-08-26T17:53:51.808Z,26.21
2022-08-26T17:56:24.058Z,26.14
2022-08-26T17:58:55.141Z,26.13
2022-08-26T18:01:27.229Z,26.07
2022-08-26T18:04:00.333Z,26.01
2022-08-26T18:06:30.468Z,25.87
2022-08-26T18:08:58.602Z,25.93
2022-08-26T18:11:27.462Z,25.89
2022-08-26T18:13:57.897Z,25.89
2022-08-26T18:16:26.388Z,25.80
2022-08-26T18:18:55.210Z,25.70
2022-08-26T18:21:28.215Z,25.58
2022-08-26T18:23:56.886Z,25.58
2022-08-26T18:26:28.570Z,25.58
2022-08-26T18:28:58.650Z,25.42
2022-08-26T18:31:27.758Z,25.37
2022-08-26T18:33:56.529Z,25.33
2022-08-26T18:36:27.433Z,25.32
2022-08-26T18:38:56.531Z,25.21
2022-08-26T18:41:28.889Z,25.23
2022-08-26T18:43:59.402Z,25.18
2022-08-26T18:46:29.033Z,25.12
2022-08-26T18:48:58.125Z,25.15
2022-08-26T18:51:29.722Z,25.08
2022-08-26T18:53:58.764Z,25.05
2022-08-26T18:56:27.036Z,24.98
2022-08-26T18:58:55.498Z,24.91
2022-08-26T19:01:27.584Z,24.87
2022-08-26T19:03:56.599Z,24.80
2022-08-26T19:06:26.747Z,24.74
2022-08-26T19:08:55.817Z,24.63
2022-08-26T19:11:31.556Z,24.60
2022-08-26T19:14:01.438Z,24.54
2022-08-26T19:16:31.802Z,24.41
2022-08-26T19:19:01.740Z,24.34
2022-08-26T19:21:30.685Z,24.15
2022-08-26T19:24:00.044Z,24.17
2022-08-26T19:26:29.462Z,24.12
2022-08-26T19:28:57.793Z,24.06
2022-08-26T19:31:26.446Z,23.96
2022-08-26T19:33:56.826Z,23.89
2022-08-26T19:36:27.138Z,23.68
2022-08-26T19:38:56.037Z,23.62
2022-08-26T19:41:36.811Z,23.59
2022-08-26T19:44:09.805Z,23.48
2022-08-26T19:49:13.762Z,23.48
2022-08-26T19:51:41.913Z,23.43
2022-08-26T19:54:10.327Z,23.44
2022-08-26T19:56:38.627Z,23.40
2022-08-26T19:59:06.788Z,23.36
2022-08-26T20:01:34.844Z,23.34
2022-08-26T20:04:04.326Z,23.26
2022-08-26T20:06:34.373Z,23.04
2022-08-26T20:09:02.451Z,23.15
2022-08-26T20:11:31.223Z,22.98
2022-08-26T20:14:00.638Z,23.05
2022-08-26T20:16:28.859Z,22.85
2022-08-26T20:19:14.037Z,22.66
2022-08-26T20:21:44.186Z,22.69
2022-08-26T20:24:15.627Z,22.54
2022-08-26T20:26:45.257Z,22.64
2022-08-26T20:29:15.086Z,22.79
2022-08-26T20:31:45.132Z,22.93
2022-08-26T20:34:14.641Z,22.89
2022-08-26T20:36:45.200Z,22.78
2022-08-26T20:39:14.296Z,22.89
2022-08-26T20:41:42.815Z,23.05
2022-08-26T20:44:11.378Z,23.19
2022-08-26T20:46:39.379Z,23.24
2022-08-26T20:49:08.059Z,22.87
2022-08-26T20:51:38.677Z,23.05
2022-08-26T20:54:08.364Z,23.19
2022-08-26T20:56:37.771Z,23.10
2022-08-26T20:59:08.244Z,23.14
2022-08-26T21:01:41.930Z,23.23
2022-08-26T21:04:13.261Z,23.24
2022-08-26T21:06:42.327Z,23.26
2022-08-26T21:09:22.404Z,23.30
2022-08-26T21:11:51.374Z,23.23
2022-08-26T21:14:20.721Z,23.27
2022-08-26T21:16:49.081Z,23.28
2022-08-26T21:19:19.715Z,23.16
2022-08-26T21:21:49.110Z,23.06
2022-08-26T21:24:17.846Z,23.04
2022-08-26T21:26:47.762Z,23.00
2022-08-26T21:29:16.366Z,22.87
2022-08-26T21:31:46.673Z,22.82
2022-08-26T21:34:15.511Z,22.79
2022-08-26T21:36:43.647Z,22.78
2022-08-26T21:39:12.407Z,22.74
2022-08-26T21:41:41.023Z,22.76
2022-08-26T21:44:11.834Z,22.73
2022-08-26T21:46:40.006Z,22.74
2022-08-26T21:49:10.706Z,22.68
2022-08-26T21:51:41.603Z,22.65
2022-08-26T21:54:11.573Z,22.58
2022-08-26T21:56:44.335Z,22.53
2022-08-26T21:59:15.312Z,22.50
2022-08-26T22:01:43.429Z,22.42
2022-08-26T22:04:12.087Z,22.36
2022-08-26T22:06:45.059Z,22.30
2022-08-26T22:09:14.470Z,22.22
2022-08-26T22:11:43.193Z,22.22
2022-08-26T22:14:12.360Z,22.18
2022-08-26T22:16:42.062Z,22.11
2022-08-26T22:19:20.188Z,22.04
2022-08-26T22:21:50.300Z,22.02
2022-08-26T22:24:19.029Z,21.98
2022-08-26T22:26:48.142Z,21.93
2022-08-26T22:29:16.831Z,21.88
2022-08-26T22:31:46.899Z,21.81
2022-08-26T22:34:17.595Z,21.82
2022-08-26T22:36:47.662Z,21.73
2022-08-26T22:39:17.877Z,21.69
2022-08-26T22:41:48.734Z,21.70
2022-08-26T22:44:17.856Z,21.66
2022-08-26T22:46:49.368Z,21.66
2022-08-26T22:49:17.964Z,21.62
2022-08-26T22:51:46.648Z,21.56
2022-08-26T22:54:15.553Z,21.51
2022-08-26T22:56:44.365Z,21.52
2022-08-26T22:59:13.129Z,21.41
2022-08-26T23:01:44.806Z,21.36
2022-08-26T23:04:15.120Z,21.34
2022-08-26T23:06:47.611Z,21.31
2022-08-26T23:09:18.314Z,21.26
2022-08-26T23:11:48.905Z,21.21
2022-08-26T23:14:18.822Z,21.14
2022-08-26T23:16:47.642Z,21.17
2022-08-26T23:19:20.173Z,21.10
2022-08-26T23:21:49.493Z,20.95
2022-08-26T23:24:18.593Z,20.99
2022-08-26T23:26:47.420Z,21.01
2022-08-26T23:29:16.489Z,20.99
2022-08-26T23:31:44.695Z,20.99
2022-08-26T23:34:31.579Z,20.99
2022-08-26T23:37:01.639Z,20.97
2022-08-26T23:39:29.981Z,20.96
2022-08-26T23:41:58.306Z,20.89
2022-08-26T23:44:27.158Z,20.90
2022-08-26T23:46:55.974Z,20.94
2022-08-26T23:49:24.549Z,20.99
2022-08-26T23:52:09.978Z,20.91
2022-08-26T23:54:39.846Z,20.85
2022-08-26T23:57:09.505Z,20.80
2022-08-26T23:59:39.049Z,20.76
